createdAt,value
2023-02-23T00:00:00.156Z,9.05
2023-02-23T00:02:31.209Z,9.25
2023-02-23T00:05:01.700Z,8.84
2023-02-23T00:07:31.492Z,8.92
2023-02-23T00:10:03.696Z,8.65
2023-02-23T00:12:35.157Z,8.95
2023-02-23T00:15:08.112Z,9.02
2023-02-23T00:17:41.268Z,8.85
2023-02-23T00:20:14.578Z,8.81
2023-02-23T00:22:45.241Z,8.83
2023-02-23T00:25:18.937Z,8.76
2023-02-23T00:27:49.642Z,8.88
2023-02-23T00:30:21.690Z,8.89
2023-02-23T00:32:54.225Z,8.89
2023-02-23T00:35:25.463Z,8.91
2023-02-23T00:37:55.655Z,8.38
2023-02-23T00:40:28.117Z,8.56
2023-02-23T00:42:58.825Z,8.97
2023-02-23T00:45:29.167Z,9.05
2023-02-23T00:47:59.616Z,8.79
2023-02-23T00:50:30.657Z,8.78
2023-02-23T00:53:03.067Z,8.75
2023-02-23T00:55:35.340Z,8.69
2023-02-23T00:58:05.313Z,8.62
2023-02-23T01:00:42.455Z,8.78
2023-02-23T01:03:12.353Z,8.41
2023-02-23T01:05:44.309Z,8.54
2023-02-23T01:08:15.697Z,8.54
2023-02-23T01:10:53.623Z,8.64
2023-02-23T01:13:25.466Z,8.40
2023-02-23T01:15:56.930Z,8.25
2023-02-23T01:18:27.571Z,8.43
2023-02-23T01:20:58.222Z,8.69
2023-02-23T01:23:28.984Z,8.25
2023-02-23T01:26:01.628Z,8.36
2023-02-23T01:28:31.598Z,8.39
2023-02-23T01:31:02.178Z,8.31
2023-02-23T01:33:33.328Z,8.12
2023-02-23T01:36:03.556Z,8.09
2023-02-23T01:38:33.767Z,8.02
2023-02-23T01:41:07.368Z,8.43
2023-02-23T01:43:38.571Z,8.55
2023-02-23T01:46:09.076Z,8.14
2023-02-23T01:48:40.952Z,8.50
2023-02-23T01:51:15.239Z,8.30
2023-02-23T01:53:48.884Z,8.35
2023-02-23T01:56:24.976Z,8.13
2023-02-23T01:58:56.794Z,8.12
2023-02-23T02:01:28.160Z,7.91
2023-02-23T02:04:00.282Z,7.82
2023-02-23T02:06:32.238Z,7.79
2023-02-23T02:09:10.965Z,7.78
2023-02-23T02:11:44.797Z,8.06
2023-02-23T02:14:18.798Z,7.98
2023-02-23T02:17:09.049Z,8.12
2023-02-23T02:20:13.688Z,7.96
2023-02-23T02:23:11.641Z,8.01
2023-02-23T02:25:56.455Z,8.12
2023-02-23T02:28:48.688Z,8.42
2023-02-23T02:31:55.618Z,7.91
2023-02-23T02:35:04.300Z,8.17
2023-02-23T02:38:01.967Z,8.10
2023-02-23T02:40:38.778Z,7.85
2023-02-23T02:43:13.015Z,8.11
2023-02-23T02:45:49.845Z,8.11
2023-02-23T02:48:27.219Z,8.77
2023-02-23T02:51:00.808Z,7.93
2023-02-23T02:53:42.470Z,8.07
2023-02-23T02:56:21.444Z,7.90
2023-02-23T02:58:51.824Z,7.74
2023-02-23T03:01:39.328Z,7.87
2023-02-23T03:04:41.710Z,8.35
2023-02-23T03:07:45.241Z,7.92
2023-02-23T03:10:41.426Z,7.91
2023-02-23T03:13:38.456Z,8.19
2023-02-23T03:16:36.161Z,7.71
2023-02-23T03:19:33.601Z,7.53
2023-02-23T03:22:27.129Z,7.83
2023-02-23T03:25:19.165Z,8.28
2023-02-23T03:28:12.526Z,7.82
2023-02-23T03:31:08.019Z,8.12
2023-02-23T03:34:02.873Z,8.30
2023-02-23T03:36:55.089Z,7.60
2023-02-23T03:39:45.498Z,7.70
2023-02-23T03:42:35.555Z,7.87
2023-02-23T03:45:27.614Z,7.69
2023-02-23T03:48:16.957Z,8.04
2023-02-23T03:51:08.287Z,7.48
2023-02-23T03:54:08.713Z,8.12
2023-02-23T03:56:58.583Z,8.04
2023-02-23T03:59:51.897Z,8.11
2023-02-23T04:02:43.189Z,7.94
2023-02-23T04:05:33.589Z,7.72
2023-02-23T04:08:24.605Z,8.09
2023-02-23T04:11:18.307Z,8.39
2023-02-23T04:13:50.088Z,7.77
2023-02-23T04:16:19.054Z,7.61
2023-02-23T04:18:51.339Z,7.70
2023-02-23T04:21:21.555Z,7.73
2023-02-23T04:23:51.577Z,7.32
2023-02-23T04:26:22.197Z,7.96
2023-02-23T04:28:53.052Z,7.80
2023-02-23T04:31:25.544Z,7.67
2023-02-23T04:33:57.349Z,7.48
2023-02-23T04:36:28.753Z,7.84
2023-02-23T04:38:59.444Z,8.18
2023-02-23T04:41:29.989Z,8.05
2023-02-23T04:44:00.711Z,7.88
2023-02-23T04:46:31.152Z,7.63
2023-02-23T04:49:03.424Z,7.92
2023-02-23T04:51:34.340Z,8.04
2023-02-23T04:54:04.552Z,7.62
2023-02-23T04:56:34.472Z,7.93
2023-02-23T04:59:04.743Z,8.20
2023-02-23T05:01:37.888Z,7.95
2023-02-23T05:04:09.986Z,8.15
2023-02-23T05:06:40.733Z,8.35
2023-02-23T05:09:12.440Z,7.90
2023-02-23T05:11:43.425Z,8.04
2023-02-23T05:14:14.158Z,7.92
2023-02-23T05:16:44.007Z,8.11
2023-02-23T05:19:17.246Z,8.46
2023-02-23T05:21:47.420Z,7.99
2023-02-23T05:24:18.050Z,8.86
2023-02-23T05:26:50.239Z,7.81
2023-02-23T05:29:20.590Z,7.64
2023-02-23T05:31:51.197Z,8.33
2023-02-23T05:34:23.425Z,8.00
2023-02-23T05:36:54.847Z,9.12
2023-02-23T05:39:25.629Z,7.28
2023-02-23T05:41:56.154Z,6.25
2023-02-23T05:44:25.926Z,5.63
2023-02-23T05:46:56.692Z,5.67
2023-02-23T05:49:28.735Z,5.79
2023-02-23T05:51:59.366Z,5.81
2023-02-23T05:54:29.671Z,5.88
2023-02-23T05:57:01.859Z,5.83
2023-02-23T05:59:32.526Z,5.57
2023-02-23T06:02:02.589Z,5.52
2023-02-23T06:04:34.769Z,5.42
2023-02-23T06:07:05.143Z,5.44
2023-02-23T06:09:35.688Z,5.84
2023-02-23T06:12:06.471Z,5.20
2023-02-23T06:14:36.945Z,5.44
2023-02-23T06:17:08.066Z,5.72
2023-02-23T06:19:39.944Z,4.92
2023-02-23T06:22:10.217Z,5.25
2023-02-23T06:24:40.697Z,5.58
2023-02-23T06:27:11.244Z,6.12
2023-02-23T06:29:42.227Z,5.77
2023-02-23T06:32:12.671Z,6.05
2023-02-23T06:34:45.355Z,6.01
2023-02-23T06:37:15.503Z,5.89
2023-02-23T06:39:46.199Z,5.51
2023-02-23T06:42:15.705Z,6.09
2023-02-23T06:44:46.289Z,5.82
2023-02-23T06:47:16.052Z,5.79
2023-02-23T06:49:48.597Z,5.79
2023-02-23T06:52:19.424Z,5.53
2023-02-23T06:54:50.386Z,5.07
2023-02-23T06:57:22.246Z,5.51
2023-02-23T06:59:52.744Z,5.65
2023-02-23T07:02:23.140Z,5.69
2023-02-23T07:04:55.193Z,5.77
2023-02-23T07:07:25.103Z,5.60
2023-02-23T07:09:55.734Z,5.60
2023-02-23T07:12:26.027Z,6.01
2023-02-23T07:14:55.469Z,6.16
2023-02-23T07:17:26.189Z,5.92
2023-02-23T07:19:58.721Z,6.28
2023-02-23T07:22:30.975Z,5.38
2023-02-23T07:25:01.113Z,5.75
2023-02-23T07:27:31.684Z,5.26
2023-02-23T07:30:03.134Z,5.87
2023-02-23T07:32:34.461Z,5.84
2023-02-23T07:35:06.741Z,6.30
2023-02-23T07:37:36.805Z,6.21
2023-02-23T07:40:09.186Z,6.01
2023-02-23T07:42:39.642Z,6.15
2023-02-23T07:45:12.441Z,6.17
2023-02-23T07:47:42.851Z,6.16
2023-02-23T07:50:16.185Z,6.64
2023-02-23T07:52:46.972Z,6.74
2023-02-23T07:55:17.239Z,6.21
2023-02-23T07:57:47.809Z,6.44
2023-02-23T08:00:18.537Z,6.48
2023-02-23T08:02:49.178Z,6.55
2023-02-23T08:05:21.098Z,6.66
2023-02-23T08:07:52.093Z,6.71
2023-02-23T08:10:22.443Z,6.64
2023-02-23T08:12:53.722Z,6.64
2023-02-23T08:15:24.432Z,6.92
2023-02-23T08:17:54.740Z,6.99
2023-02-23T08:20:28.376Z,6.96
2023-02-23T08:22:59.883Z,7.08
2023-02-23T08:25:31.088Z,7.10
2023-02-23T08:28:04.783Z,7.39
2023-02-23T08:30:36.305Z,7.40
2023-02-23T08:33:08.531Z,7.58
2023-02-23T08:35:40.808Z,7.63
2023-02-23T08:38:11.691Z,7.79
2023-02-23T08:40:41.867Z,7.76
2023-02-23T08:43:12.735Z,7.96
2023-02-23T08:45:43.285Z,7.97
2023-02-23T08:48:13.987Z,8.02
2023-02-23T08:50:50.070Z,8.22
2023-02-23T08:53:20.251Z,8.24
2023-02-23T08:55:52.251Z,8.36
2023-02-23T08:58:23.946Z,8.35
2023-02-23T09:00:54.744Z,8.47
2023-02-23T09:03:26.652Z,8.53
2023-02-23T09:05:59.105Z,8.48
2023-02-23T09:08:30.973Z,8.59
2023-02-23T09:11:02.314Z,8.70
2023-02-23T09:13:34.535Z,8.66
2023-02-23T09:16:06.396Z,8.68
2023-02-23T09:18:37.292Z,8.84
2023-02-23T09:21:19.141Z,8.76
2023-02-23T09:23:53.058Z,8.82
2023-02-23T09:26:24.054Z,8.82
2023-02-23T09:28:54.306Z,8.59
2023-02-23T09:31:26.054Z,8.76
2023-02-23T09:33:57.044Z,8.50
2023-02-23T09:36:29.667Z,8.50
2023-02-23T09:39:01.378Z,8.76
2023-02-23T09:41:51.989Z,8.74
2023-02-23T09:44:34.092Z,8.58
2023-02-23T09:47:14.516Z,8.63
2023-02-23T09:49:48.436Z,8.89
2023-02-23T09:52:23.864Z,8.69
2023-02-23T09:54:53.577Z,8.83
2023-02-23T09:57:31.477Z,8.68
2023-02-23T10:00:03.271Z,8.53
2023-02-23T10:02:39.928Z,8.75
2023-02-23T10:05:13.710Z,8.98
2023-02-23T10:07:50.238Z,8.64
2023-02-23T10:10:25.963Z,8.63
2023-02-23T10:13:04.279Z,8.42
2023-02-23T10:15:39.569Z,8.65
2023-02-23T10:18:18.595Z,8.71
2023-02-23T10:20:55.421Z,8.81
2023-02-23T10:23:31.494Z,8.87
2023-02-23T10:26:04.017Z,8.69
2023-02-23T10:28:39.415Z,9.09
2023-02-23T10:31:29.291Z,8.88
2023-02-23T10:34:04.457Z,8.51
2023-02-23T10:36:39.258Z,8.89
2023-02-23T10:39:13.280Z,8.99
2023-02-23T10:41:45.030Z,9.23
2023-02-23T10:44:22.277Z,8.92
2023-02-23T10:46:57.388Z,8.95
2023-02-23T10:49:41.218Z,8.84
2023-02-23T10:52:13.996Z,9.11
2023-02-23T10:54:48.147Z,9.23
2023-02-23T10:57:28.126Z,8.78
2023-02-23T11:00:27.938Z,9.24
2023-02-23T11:03:00.440Z,9.13
2023-02-23T11:05:35.148Z,9.44
2023-02-23T11:08:28.478Z,9.32
2023-02-23T11:11:25.668Z,9.45
2023-02-23T11:13:57.345Z,9.39
2023-02-23T11:16:31.236Z,9.29
2023-02-23T11:19:03.864Z,9.80
2023-02-23T11:21:37.794Z,9.94
2023-02-23T11:24:18.756Z,9.89
2023-02-23T11:26:51.744Z,9.97
2023-02-23T11:29:27.279Z,10.00
2023-02-23T11:32:01.249Z,10.11
2023-02-23T11:34:34.386Z,9.98
2023-02-23T11:37:07.714Z,10.20
2023-02-23T11:39:39.614Z,10.42
2023-02-23T11:42:19.789Z,10.42
2023-02-23T11:45:05.873Z,10.36
2023-02-23T11:47:37.128Z,10.29
2023-02-23T11:50:09.185Z,10.55
2023-02-23T11:52:39.181Z,10.55
2023-02-23T11:55:11.567Z,10.39
2023-02-23T11:57:44.223Z,10.62
2023-02-23T12:00:23.558Z,10.61
2023-02-23T12:02:58.829Z,10.69
2023-02-23T12:05:29.899Z,10.96
2023-02-23T12:08:07.326Z,10.82
2023-02-23T12:10:41.689Z,10.58
2023-02-23T12:13:26.986Z,10.58
2023-02-23T12:16:00.655Z,10.54
2023-02-23T12:18:44.831Z,10.71
2023-02-23T12:21:30.043Z,10.71
2023-02-23T12:24:08.345Z,10.77
2023-02-23T12:26:46.007Z,10.63
2023-02-23T12:29:24.063Z,10.68
2023-02-23T12:31:58.767Z,10.62
2023-02-23T12:34:32.828Z,10.62
2023-02-23T12:37:09.669Z,10.78
2023-02-23T12:39:44.961Z,10.64
2023-02-23T12:42:20.746Z,10.73
2023-02-23T12:44:57.036Z,10.78
2023-02-23T12:47:34.766Z,10.64
2023-02-23T12:50:12.266Z,10.97
2023-02-23T12:52:48.386Z,10.87
2023-02-23T12:55:23.031Z,10.91
2023-02-23T12:57:58.607Z,10.87
2023-02-23T13:00:50.389Z,10.78
2023-02-23T13:03:47.980Z,10.56
2023-02-23T13:06:25.118Z,10.65
2023-02-23T13:09:10.307Z,10.95
2023-02-23T13:12:07.070Z,10.84
2023-02-23T13:14:45.494Z,10.77
2023-02-23T13:17:36.264Z,10.62
2023-02-23T13:20:13.441Z,10.71
2023-02-23T13:22:49.044Z,10.75
2023-02-23T13:25:28.374Z,10.78
2023-02-23T13:28:02.337Z,10.76
2023-02-23T13:30:36.008Z,10.87
2023-02-23T13:33:17.278Z,10.92
2023-02-23T13:35:47.424Z,10.90
2023-02-23T13:38:22.471Z,10.74
2023-02-23T13:40:59.401Z,10.87
2023-02-23T13:43:34.873Z,10.84
2023-02-23T13:46:24.759Z,10.86
2023-02-23T13:49:02.345Z,10.93
2023-02-23T13:51:41.867Z,11.01
2023-02-23T13:54:26.261Z,11.03
2023-02-23T13:56:59.862Z,10.92
2023-02-23T13:59:33.743Z,11.11
2023-02-23T14:02:08.941Z,11.06
2023-02-23T14:04:44.518Z,11.26
2023-02-23T14:07:24.917Z,11.12
2023-02-23T14:09:57.334Z,11.16
2023-02-23T14:12:34.978Z,11.08
2023-02-23T14:15:43.619Z,11.11
2023-02-23T14:18:55.821Z,11.12
2023-02-23T14:21:33.569Z,11.12
2023-02-23T14:24:18.099Z,11.10
2023-02-23T14:27:40.273Z,11.10
2023-02-23T14:30:26.555Z,11.03
2023-02-23T14:32:57.589Z,11.02
2023-02-23T14:35:46.022Z,11.06
2023-02-23T14:38:46.878Z,11.09
2023-02-23T14:41:24.787Z,11.25
2023-02-23T14:43:56.860Z,11.19
2023-02-23T14:46:28.857Z,11.13
2023-02-23T14:49:02.600Z,11.26
2023-02-23T14:51:42.597Z,11.29
2023-02-23T14:54:26.846Z,11.11
2023-02-23T14:56:59.866Z,10.94
2023-02-23T14:59:31.859Z,11.00
2023-02-23T15:02:03.360Z,10.99
2023-02-23T15:04:35.278Z,10.96
2023-02-23T15:07:05.882Z,10.97
2023-02-23T15:09:43.121Z,10.94
2023-02-23T15:12:20.303Z,11.02
2023-02-23T15:14:51.385Z,11.03
2023-02-23T15:17:23.881Z,10.95
2023-02-23T15:20:14.398Z,10.93
2023-02-23T15:22:48.083Z,10.90
2023-02-23T15:25:22.105Z,11.05
2023-02-23T15:27:53.680Z,10.94
2023-02-23T15:30:28.569Z,10.95
2023-02-23T15:33:03.604Z,10.97
2023-02-23T15:35:38.355Z,11.03
2023-02-23T15:38:24.605Z,10.95
2023-02-23T15:41:05.894Z,10.69
2023-02-23T15:43:37.552Z,10.77
2023-02-23T15:46:08.945Z,10.83
2023-02-23T15:48:46.225Z,10.82
2023-02-23T15:51:26.781Z,10.79
2023-02-23T15:53:57.183Z,10.96
2023-02-23T15:56:32.062Z,10.94
2023-02-23T15:59:06.079Z,10.96
2023-02-23T16:01:36.539Z,10.92
2023-02-23T16:04:11.016Z,10.92
2023-02-23T16:06:43.896Z,10.88
2023-02-23T16:09:26.705Z,10.91
2023-02-23T16:12:03.347Z,10.78
2023-02-23T16:14:36.177Z,10.84
2023-02-23T16:17:12.377Z,10.86
2023-02-23T16:19:47.110Z,10.74
2023-02-23T16:22:25.353Z,10.83
2023-02-23T16:25:03.447Z,10.77
2023-02-23T16:27:36.363Z,10.68
2023-02-23T16:30:24.106Z,10.71
2023-02-23T16:33:09.354Z,10.38
2023-02-23T16:35:42.574Z,10.44
2023-02-23T16:38:16.917Z,10.42
2023-02-23T16:40:49.145Z,10.33
2023-02-23T16:43:21.174Z,10.42
2023-02-23T16:45:52.301Z,10.35
2023-02-23T16:48:23.274Z,10.09
2023-02-23T16:50:54.671Z,10.01
2023-02-23T16:53:25.639Z,10.00
2023-02-23T16:55:58.139Z,9.94
2023-02-23T16:58:31.995Z,10.00
2023-02-23T17:01:03.018Z,10.06
2023-02-23T17:03:35.963Z,9.86
2023-02-23T17:06:08.966Z,9.85
2023-02-23T17:08:43.391Z,9.68
2023-02-23T17:11:17.194Z,9.73
2023-02-23T17:13:49.945Z,9.57
2023-02-23T17:16:21.276Z,9.54
2023-02-23T17:18:52.352Z,9.45
2023-02-23T17:21:24.507Z,9.33
2023-02-23T17:24:03.338Z,9.31
2023-02-23T17:26:33.772Z,9.30
2023-02-23T17:29:05.840Z,9.17
2023-02-23T17:31:38.307Z,9.24
2023-02-23T17:34:10.086Z,9.37
2023-02-23T17:36:40.832Z,9.20
2023-02-23T17:39:14.247Z,8.92
2023-02-23T17:41:44.608Z,9.05
2023-02-23T17:44:16.514Z,9.13
2023-02-23T17:46:46.732Z,9.15
2023-02-23T17:49:16.541Z,9.14
2023-02-23T17:51:47.078Z,9.11
2023-02-23T17:54:17.200Z,9.22
2023-02-23T17:56:47.176Z,9.15
2023-02-23T17:59:19.627Z,9.05
2023-02-23T18:01:50.201Z,8.86
2023-02-23T18:04:20.482Z,8.79
2023-02-23T18:06:50.618Z,8.84
2023-02-23T18:09:20.645Z,8.78
2023-02-23T18:11:50.960Z,8.69
2023-02-23T18:14:23.121Z,8.63
2023-02-23T18:16:53.273Z,8.75
2023-02-23T18:19:24.422Z,8.66
2023-02-23T18:21:56.844Z,8.59
2023-02-23T18:24:31.595Z,8.42
2023-02-23T18:27:03.887Z,8.32
2023-02-23T18:29:38.166Z,8.34
2023-02-23T18:32:10.746Z,8.19
2023-02-23T18:34:41.595Z,8.29
2023-02-23T18:37:13.601Z,8.34
2023-02-23T18:39:44.029Z,8.38
2023-02-23T18:42:14.619Z,8.14
2023-02-23T18:44:47.209Z,8.17
2023-02-23T18:47:18.730Z,7.96
2023-02-23T18:49:48.915Z,8.01
2023-02-23T18:52:19.524Z,7.76
2023-02-23T18:54:49.792Z,7.49
2023-02-23T18:57:19.953Z,7.61
2023-02-23T18:59:53.292Z,7.52
2023-02-23T19:02:24.795Z,7.50
2023-02-23T19:04:55.185Z,7.61
2023-02-23T19:07:25.545Z,7.50
2023-02-23T19:09:55.782Z,7.55
2023-02-23T19:12:26.520Z,7.50
2023-02-23T19:14:58.813Z,7.40
2023-02-23T19:17:30.046Z,7.42
2023-02-23T19:20:01.234Z,7.52
2023-02-23T19:22:32.688Z,7.67
2023-02-23T19:25:03.995Z,7.52
2023-02-23T19:27:34.737Z,7.58
2023-02-23T19:30:10.480Z,7.52
2023-02-23T19:32:41.292Z,7.52
2023-02-23T19:35:15.046Z,7.61
2023-02-23T19:37:50.871Z,7.49
2023-02-23T19:40:28.764Z,7.39
2023-02-23T19:42:58.999Z,7.52
2023-02-23T19:45:31.972Z,7.53
2023-02-23T19:48:02.494Z,7.40
2023-02-23T19:50:34.001Z,7.47
2023-02-23T19:53:04.238Z,7.60
2023-02-23T19:55:34.494Z,7.67
2023-02-23T19:58:05.469Z,7.60
2023-02-23T20:00:37.366Z,7.66
2023-02-23T20:03:08.818Z,7.57
2023-02-23T20:05:43.020Z,7.37
2023-02-23T20:08:12.951Z,7.50
2023-02-23T20:10:43.186Z,7.24
2023-02-23T20:13:14.098Z,7.41
2023-02-23T20:15:46.547Z,7.62
2023-02-23T20:18:17.399Z,7.51
2023-02-23T20:20:47.995Z,7.56
2023-02-23T20:23:19.470Z,7.45
2023-02-23T20:25:50.156Z,7.46
2023-02-23T20:28:20.657Z,7.46
2023-02-23T20:30:53.063Z,7.50
2023-02-23T20:33:23.196Z,7.58
2023-02-23T20:35:53.373Z,7.58
2023-02-23T20:38:23.620Z,7.46
2023-02-23T20:40:54.733Z,7.35
2023-02-23T20:43:25.185Z,7.39
2023-02-23T20:46:01.053Z,7.42
2023-02-23T20:48:31.859Z,7.58
2023-02-23T20:51:02.779Z,7.56
2023-02-23T20:53:33.512Z,7.35
2023-02-23T20:56:06.807Z,7.48
2023-02-23T20:58:37.211Z,7.38
2023-02-23T21:01:23.412Z,7.46
2023-02-23T21:03:55.576Z,7.51
2023-02-23T21:06:27.311Z,7.54
2023-02-23T21:09:04.705Z,7.62
2023-02-23T21:11:34.866Z,7.74
2023-02-23T21:14:09.182Z,7.90
2023-02-23T21:16:45.448Z,7.77
2023-02-23T21:19:20.497Z,7.88
2023-02-23T21:21:58.308Z,7.96
2023-02-23T21:24:30.747Z,7.92
2023-02-23T21:27:02.252Z,7.81
2023-02-23T21:29:32.536Z,7.53
2023-02-23T21:32:05.794Z,7.65
2023-02-23T21:34:36.567Z,7.69
2023-02-23T21:37:06.831Z,7.74
2023-02-23T21:39:37.567Z,7.84
2023-02-23T21:42:07.605Z,7.94
2023-02-23T21:44:38.617Z,7.67
2023-02-23T21:47:10.341Z,7.46
2023-02-23T21:49:41.232Z,7.60
2023-02-23T21:52:14.430Z,7.72
2023-02-23T21:54:46.952Z,7.87
2023-02-23T21:57:17.549Z,7.56
2023-02-23T21:59:48.262Z,7.51
2023-02-23T22:02:20.952Z,7.99
2023-02-23T22:04:54.612Z,7.89
2023-02-23T22:07:25.025Z,7.88
2023-02-23T22:09:56.299Z,7.97
2023-02-23T22:12:28.685Z,7.87
2023-02-23T22:14:59.702Z,7.83
2023-02-23T22:17:33.288Z,7.82
2023-02-23T22:20:06.710Z,7.82
2023-02-23T22:22:37.139Z,7.87
2023-02-23T22:25:09.703Z,7.71
2023-02-23T22:27:41.984Z,7.72
2023-02-23T22:30:14.516Z,7.93
2023-02-23T22:32:47.067Z,7.79
2023-02-23T22:35:17.792Z,7.62
2023-02-23T22:37:50.402Z,7.71
2023-02-23T22:40:21.460Z,8.11
2023-02-23T22:42:52.704Z,7.90
2023-02-23T22:45:23.682Z,7.95
2023-02-23T22:47:56.198Z,8.06
2023-02-23T22:50:26.062Z,7.95
2023-02-23T22:52:56.885Z,8.01
2023-02-23T22:55:29.104Z,7.88
2023-02-23T22:58:02.231Z,7.72
2023-02-23T23:00:33.985Z,7.89
2023-02-23T23:03:06.076Z,7.81
2023-02-23T23:05:37.640Z,7.74
2023-02-23T23:08:08.065Z,7.89
2023-02-23T23:10:39.415Z,7.52
2023-02-23T23:13:09.826Z,7.73
2023-02-23T23:15:41.068Z,7.78
2023-02-23T23:18:21.324Z,7.66
2023-02-23T23:20:54.415Z,7.89
2023-02-23T23:23:26.374Z,7.67
2023-02-23T23:25:57.158Z,7.75
2023-02-23T23:28:28.838Z,7.95
2023-02-23T23:30:58.659Z,8.10
2023-02-23T23:33:31.281Z,7.78
2023-02-23T23:36:07.749Z,7.92
2023-02-23T23:38:39.225Z,7.97
2023-02-23T23:41:13.860Z,7.86
2023-02-23T23:43:47.103Z,8.00
2023-02-23T23:46:23.595Z,7.84
2023-02-23T23:48:56.358Z,7.95
2023-02-23T23:51:29.600Z,8.12
2023-02-23T23:54:02.648Z,7.94
2023-02-23T23:56:37.593Z,8.00
2023-02-23T23:59:09.353Z,7.81
